Time;durP1;ratioP1;P1;durP2;ratioP2;P2;SDS_P1;SDS_P2;PMS_P1;PMS_P2;Temp;Humidity;BMP_temperature;BMP_pressure;BME280_temperature;BME280_humidity;BME280_pressure;Samples;Min_cycle;Max_cycle;Signal;HPM_P1;HPM_P2
2022/06/15 00:00:45;;;;;;;1.67;1.50;;;19.30;52.40;;;;;;4974592;28;20941;-45
2022/06/15 00:03:18;;;;;;;5.43;3.37;;;19.20;52.40;;;;;;4974787;28;20472;-44
2022/06/15 00:05:45;;;;;;;3.60;3.07;;;19.20;52.60;;;;;;4989717;28;20521;-45
2022/06/15 00:08:12;;;;;;;4.20;2.57;;;19.20;52.70;;;;;;4977662;28;20478;-44
2022/06/15 00:10:39;;;;;;;3.27;2.50;;;19.10;53.00;;;;;;4976781;28;20445;-44
2022/06/15 00:13:08;;;;;;;2.67;2.47;;;19.10;52.90;;;;;;4989772;28;21002;-45
2022/06/15 00:15:35;;;;;;;2.83;2.10;;;19.00;52.70;;;;;;4990071;28;20491;-44
2022/06/15 00:18:03;;;;;;;3.70;2.17;;;19.00;52.60;;;;;;4989207;28;20461;-44
2022/06/15 00:20:30;;;;;;;4.30;2.07;;;19.00;52.50;;;;;;4992156;28;20856;-44
2022/06/15 00:22:57;;;;;;;2.90;1.80;;;18.90;52.30;;;;;;4989920;28;20465;-44
2022/06/15 00:25:24;;;;;;;2.10;1.93;;;18.90;52.50;;;;;;4992240;28;20467;-44
2022/06/15 00:27:50;;;;;;;1.70;1.47;;;18.90;53.00;;;;;;4991589;28;20493;-44
2022/06/15 00:30:21;;;;;;;1.70;1.60;;;18.80;53.10;;;;;;4975065;28;20657;-44
2022/06/15 00:32:48;;;;;;;4.73;1.60;;;18.80;53.40;;;;;;4995677;28;20464;-45
2022/06/15 00:35:17;;;;;;;2.97;1.90;;;18.80;53.00;;;;;;4991093;28;20496;-45
2022/06/15 00:37:44;;;;;;;1.70;1.60;;;18.70;53.40;;;;;;4972932;28;20882;-45
2022/06/15 00:40:11;;;;;;;3.70;2.40;;;18.70;53.40;;;;;;4977783;28;20465;-44
2022/06/15 00:42:37;;;;;;;3.50;2.00;;;18.60;53.00;;;;;;4990043;28;20471;-44
2022/06/15 00:45:05;;;;;;;3.50;2.20;;;18.60;53.60;;;;;;4972737;28;21935;-44
2022/06/15 00:47:36;;;;;;;2.93;1.47;;;18.60;53.60;;;;;;4991947;28;20528;-44
2022/06/15 00:50:16;;;;;;;1.50;1.40;;;18.60;53.70;;;;;;4973096;28;20978;-45
2022/06/15 00:53:19;;;;;;;2.30;1.53;;;18.60;54.20;;;;;;4992518;28;20553;-45
2022/06/15 00:55:46;;;;;;;2.17;1.67;;;18.50;54.20;;;;;;4960613;28;20489;-44
2022/06/15 00:58:15;;;;;;;1.77;1.67;;;18.50;54.40;;;;;;4975307;28;20477;-44
2022/06/15 01:00:41;;;;;;;2.07;1.50;;;18.40;54.50;;;;;;4986715;28;20631;-45
2022/06/15 01:03:12;;;;;;;2.07;1.70;;;18.40;54.40;;;;;;4989193;28;20918;-44
2022/06/15 01:06:12;;;;;;;2.57;2.10;;;18.30;54.30;;;;;;4990415;28;20485;-44
2022/06/15 01:09:05;;;;;;;1.83;1.73;;;18.30;54.70;;;;;;4989901;28;20489;-45
2022/06/15 01:11:39;;;;;;;3.20;1.70;;;18.30;54.80;;;;;;4973153;28;20489;-45
2022/06/15 01:14:19;;;;;;;2.10;1.90;;;18.20;54.70;;;;;;4971149;28;21270;-45
2022/06/15 01:17:01;;;;;;;2.30;1.80;;;18.20;55.10;;;;;;4970678;28;20896;-44
2022/06/15 01:19:54;;;;;;;2.90;2.20;;;18.20;54.70;;;;;;4987724;28;20488;-45
2022/06/15 01:22:46;;;;;;;2.40;1.83;;;18.20;54.90;;;;;;4989587;28;20461;-46
2022/06/15 01:25:59;;;;;;;3.27;2.00;;;18.10;55.30;;;;;;4992646;28;20519;-45
2022/06/15 01:28:54;;;;;;;2.17;1.50;;;18.10;55.80;;;;;;4974527;28;20469;-46
2022/06/15 01:31:51;;;;;;;3.23;2.30;;;18.00;55.80;;;;;;4976838;28;20840;-46
2022/06/15 01:34:39;;;;;;;3.43;1.80;;;18.00;56.00;;;;;;4988918;28;20463;-46
2022/06/15 01:37:05;;;;;;;5.03;2.10;;;17.90;56.30;;;;;;4993731;28;20559;-45
2022/06/15 01:39:47;;;;;;;2.07;1.97;;;18.00;56.40;;;;;;4990159;28;20469;-45
2022/06/15 01:42:35;;;;;;;3.67;2.03;;;17.90;56.20;;;;;;4992597;28;20457;-46
2022/06/15 01:45:10;;;;;;;3.93;1.70;;;17.90;56.20;;;;;;4990711;28;20834;-46
2022/06/15 01:47:39;;;;;;;5.63;1.80;;;17.80;56.30;;;;;;4972763;28;20494;-46
2022/06/15 01:50:25;;;;;;;5.13;2.50;;;17.80;56.50;;;;;;4992086;28;20481;-45
2022/06/15 01:53:13;;;;;;;4.63;2.07;;;17.80;56.20;;;;;;4992480;28;20528;-46
2022/06/15 01:55:49;;;;;;;2.30;2.13;;;17.70;56.60;;;;;;4991909;28;20521;-46
2022/06/15 01:58:18;;;;;;;2.50;2.30;;;17.70;57.00;;;;;;4989648;28;20465;-45
2022/06/15 02:01:07;;;;;;;3.77;1.67;;;17.60;56.90;;;;;;4989472;28;20568;-46
2022/06/15 02:03:52;;;;;;;2.90;2.20;;;17.60;57.50;;;;;;4988801;28;20507;-46
2022/06/15 02:06:40;;;;;;;2.63;2.40;;;17.50;57.40;;;;;;4989221;28;20584;-46
2022/06/15 02:09:40;;;;;;;2.60;2.00;;;17.40;57.60;;;;;;4990672;28;20577;-46
2022/06/15 02:12:08;;;;;;;2.67;2.20;;;17.40;57.80;;;;;;4991266;28;20876;-45
2022/06/15 02:14:50;;;;;;;2.47;2.27;;;17.40;58.00;;;;;;4990824;28;20501;-46
2022/06/15 02:17:23;;;;;;;5.40;2.37;;;17.40;57.90;;;;;;4991846;28;20548;-45
2022/06/15 02:19:53;;;;;;;2.50;2.30;;;17.30;58.30;;;;;;4992329;28;20548;-46
2022/06/15 02:22:26;;;;;;;6.90;2.57;;;17.30;58.60;;;;;;4990463;28;20473;-45
2022/06/15 02:24:55;;;;;;;5.63;2.57;;;17.20;58.80;;;;;;4988169;28;20525;-45
2022/06/15 02:27:26;;;;;;;2.87;2.23;;;17.20;59.00;;;;;;4961873;28;20517;-45
2022/06/15 02:29:59;;;;;;;3.27;2.47;;;17.20;58.90;;;;;;4977257;28;20568;-45
2022/06/15 02:32:28;;;;;;;2.40;2.20;;;17.20;58.80;;;;;;4991701;28;20469;-46
2022/06/15 02:34:54;;;;;;;4.60;2.47;;;17.10;58.90;;;;;;4969025;28;20564;-47
2022/06/15 02:37:21;;;;;;;5.73;2.37;;;17.10;59.00;;;;;;4987329;28;20845;-46
2022/06/15 02:39:48;;;;;;;3.30;2.30;;;17.10;59.30;;;;;;4987389;28;20473;-46
2022/06/15 02:42:29;;;;;;;2.90;2.67;;;17.10;59.30;;;;;;4972460;28;20491;-46
2022/06/15 02:45:08;;;;;;;4.60;2.37;;;17.10;59.30;;;;;;4985340;28;20473;-46
2022/06/15 02:47:40;;;;;;;3.27;2.50;;;17.00;59.60;;;;;;4952945;28;20825;-46
2022/06/15 02:50:10;;;;;;;2.27;2.07;;;17.00;59.70;;;;;;4985836;28;20492;-46
2022/06/15 02:52:45;;;;;;;2.27;1.90;;;17.10;59.90;;;;;;4989103;28;21033;-46
2022/06/15 02:55:13;;;;;;;2.27;2.07;;;17.10;59.70;;;;;;4988985;28;20508;-46
2022/06/15 02:57:50;;;;;;;2.73;2.43;;;17.10;59.70;;;;;;4986592;28;20979;-46
2022/06/15 03:00:22;;;;;;;3.70;2.50;;;17.10;59.90;;;;;;4969066;28;21009;-46
2022/06/15 03:02:51;;;;;;;4.30;1.97;;;17.00;60.00;;;;;;4967968;28;20464;-46
2022/06/15 03:05:18;;;;;;;3.63;3.00;;;17.00;60.30;;;;;;4977834;28;20469;-46
2022/06/15 03:07:45;;;;;;;4.07;2.30;;;17.00;60.20;;;;;;4976061;28;20524;-46
2022/06/15 03:10:12;;;;;;;3.10;2.70;;;17.00;60.30;;;;;;4986694;28;21246;-46
2022/06/15 03:12:39;;;;;;;3.73;2.70;;;17.00;60.20;;;;;;4986598;28;20891;-46
2022/06/15 03:15:07;;;;;;;2.90;2.37;;;17.00;60.30;;;;;;4966526;28;20458;-46
2022/06/15 03:17:34;;;;;;;5.00;2.07;;;17.00;60.30;;;;;;4986105;28;20980;-46
2022/06/15 03:20:01;;;;;;;2.97;2.30;;;17.00;60.50;;;;;;4983858;28;20460;-47
2022/06/15 03:22:28;;;;;;;2.40;2.20;;;17.00;60.40;;;;;;4985696;28;20464;-46
2022/06/15 03:24:54;;;;;;;2.70;1.87;;;17.00;60.60;;;;;;4985535;28;20465;-46
2022/06/15 03:27:21;;;;;;;3.30;2.13;;;17.00;60.70;;;;;;4985442;28;20497;-46
2022/06/15 03:29:50;;;;;;;4.13;2.83;;;17.00;60.70;;;;;;4984931;28;20557;-46
2022/06/15 03:32:17;;;;;;;2.20;2.00;;;17.00;60.70;;;;;;4986414;28;20461;-46
2022/06/15 03:34:44;;;;;;;7.87;2.83;;;17.00;60.80;;;;;;4984137;28;20504;-46
2022/06/15 03:37:11;;;;;;;3.17;2.17;;;16.90;60.80;;;;;;4968668;28;20456;-46
2022/06/15 03:39:39;;;;;;;3.37;2.30;;;16.90;60.80;;;;;;4984988;28;20475;-46
2022/06/15 03:42:10;;;;;;;2.97;2.37;;;16.90;60.60;;;;;;4985475;28;20532;-46
2022/06/15 03:44:37;;;;;;;2.40;2.20;;;16.90;60.60;;;;;;4985555;28;20829;-46
2022/06/15 03:47:05;;;;;;;3.20;2.37;;;16.90;60.70;;;;;;4986314;28;20503;-47
2022/06/15 03:49:32;;;;;;;3.80;2.53;;;16.90;60.80;;;;;;4984474;28;21040;-46
2022/06/15 03:51:59;;;;;;;6.13;2.53;;;16.90;60.90;;;;;;4986335;28;20982;-46
2022/06/15 03:54:26;;;;;;;4.43;2.60;;;16.90;61.00;;;;;;4984875;28;20782;-46
2022/06/15 03:56:53;;;;;;;5.20;3.23;;;16.90;61.10;;;;;;4967972;28;20469;-46
2022/06/15 03:59:20;;;;;;;2.90;2.70;;;16.90;61.40;;;;;;4985043;28;20833;-46
2022/06/15 04:01:47;;;;;;;2.50;2.30;;;17.00;61.60;;;;;;4985611;28;20472;-45
2022/06/15 04:04:14;;;;;;;5.40;2.50;;;16.90;61.50;;;;;;4965354;28;20500;-46
2022/06/15 04:06:41;;;;;;;3.50;2.47;;;16.90;61.60;;;;;;4969458;28;20511;-46
2022/06/15 04:09:08;;;;;;;2.50;2.30;;;17.00;61.70;;;;;;4962236;28;20968;-46
2022/06/15 04:14:21;;;;;;;3.00;2.47;;;17.00;61.90;;;;;;4985641;28;21021;-46
2022/06/15 04:16:53;;;;;;;2.93;2.20;;;17.10;62.00;;;;;;4986827;28;20547;-46
2022/06/15 04:19:29;;;;;;;3.20;2.30;;;17.10;62.00;;;;;;4984109;28;20460;-45
2022/06/15 04:21:56;;;;;;;3.63;2.33;;;17.10;62.10;;;;;;4982500;28;20468;-46
2022/06/15 04:24:26;;;;;;;2.97;2.40;;;17.10;62.10;;;;;;4966819;28;20485;-46
2022/06/15 04:26:53;;;;;;;2.97;2.20;;;17.10;62.40;;;;;;4986087;28;20498;-46
2022/06/15 04:29:20;;;;;;;5.97;3.00;;;17.10;62.40;;;;;;4985325;28;20982;-46
2022/06/15 04:31:48;;;;;;;3.77;2.27;;;17.20;62.60;;;;;;4984738;28;20563;-46
2022/06/15 04:34:15;;;;;;;2.83;2.47;;;17.20;62.60;;;;;;4969040;28;20491;-46
2022/06/15 04:36:43;;;;;;;2.97;2.00;;;17.20;62.60;;;;;;4970526;28;20920;-46
2022/06/15 04:39:12;;;;;;;2.40;2.17;;;17.20;62.70;;;;;;4965379;28;20852;-46
2022/06/15 04:41:40;;;;;;;2.97;2.60;;;17.20;62.60;;;;;;4966516;28;20461;-45
2022/06/15 04:44:10;;;;;;;5.87;2.43;;;17.30;61.80;;;;;;4965396;28;20472;-46
2022/06/15 04:46:38;;;;;;;2.73;2.20;;;17.30;62.00;;;;;;4974145;28;20457;-46
2022/06/15 04:49:05;;;;;;;3.00;2.10;;;17.40;62.10;;;;;;4963259;28;20487;-46
2022/06/15 04:51:39;;;;;;;3.63;1.90;;;17.40;61.90;;;;;;4978727;28;20465;-46
2022/06/15 04:54:09;;;;;;;5.40;2.40;;;17.50;60.80;;;;;;4965630;28;20552;-46
2022/06/15 04:56:38;;;;;;;3.40;2.00;;;17.50;60.70;;;;;;4981836;28;20461;-46
2022/06/15 04:59:05;;;;;;;3.10;1.83;;;17.60;60.10;;;;;;4969221;28;20468;-46
2022/06/15 05:01:32;;;;;;;3.50;2.10;;;17.70;59.40;;;;;;4984999;28;20757;-45
2022/06/15 05:03:59;;;;;;;2.10;1.70;;;17.80;59.90;;;;;;4986683;28;20496;-46
2022/06/15 05:06:33;;;;;;;3.37;2.00;;;17.90;58.90;;;;;;4986311;28;20551;-46
2022/06/15 05:09:01;;;;;;;2.40;2.20;;;17.90;57.80;;;;;;4986171;28;20503;-46
2022/06/15 05:11:28;;;;;;;3.17;1.80;;;18.00;57.00;;;;;;4987987;28;20459;-46
2022/06/15 05:13:57;;;;;;;3.60;2.40;;;18.10;57.00;;;;;;4987165;28;20475;-45
2022/06/15 05:16:25;;;;;;;6.70;2.60;;;18.20;56.50;;;;;;4983741;28;20466;-45
2022/06/15 05:18:52;;;;;;;3.20;2.07;;;18.30;55.70;;;;;;4956223;28;20480;-45
2022/06/15 05:21:19;;;;;;;4.30;2.13;;;18.40;55.90;;;;;;4988717;28;20484;-45
2022/06/15 05:23:46;;;;;;;2.97;2.40;;;18.50;55.30;;;;;;4989684;28;20893;-46
2022/06/15 05:26:13;;;;;;;3.77;1.87;;;18.60;55.10;;;;;;4984785;28;20981;-46
2022/06/15 05:28:44;;;;;;;3.00;2.30;;;18.60;55.10;;;;;;4985626;28;20511;-46
2022/06/15 05:31:22;;;;;;;4.07;2.10;;;18.70;55.30;;;;;;4969873;28;20457;-46
2022/06/15 05:33:53;;;;;;;3.43;3.13;;;18.80;54.80;;;;;;4986558;28;20461;-46
2022/06/15 05:36:23;;;;;;;3.07;2.50;;;18.80;54.60;;;;;;4972358;28;20457;-45
2022/06/15 05:38:51;;;;;;;1.50;1.40;;;18.90;54.60;;;;;;4988566;28;20887;-45
2022/06/15 05:41:18;;;;;;;3.33;2.20;;;19.00;54.80;;;;;;4986985;28;20461;-46
2022/06/15 05:43:52;;;;;;;2.07;1.90;;;19.10;55.00;;;;;;4972129;28;20471;-46
2022/06/15 05:46:31;;;;;;;5.37;2.43;;;19.20;55.10;;;;;;4987772;28;20480;-46
2022/06/15 05:49:00;;;;;;;2.70;2.00;;;19.20;54.40;;;;;;4987094;28;20905;-46
2022/06/15 05:51:28;;;;;;;3.80;2.30;;;19.30;53.70;;;;;;4988757;28;20461;-46
2022/06/15 05:53:55;;;;;;;2.27;2.07;;;19.30;53.80;;;;;;4968115;28;20470;-46
2022/06/15 05:56:23;;;;;;;2.10;1.77;;;19.40;54.10;;;;;;4985463;28;20481;-46
2022/06/15 05:58:51;;;;;;;3.83;2.13;;;19.50;54.20;;;;;;4986460;28;20457;-46
2022/06/15 06:01:23;;;;;;;2.40;2.07;;;19.60;54.10;;;;;;4967745;28;20505;-46
2022/06/15 06:03:51;;;;;;;6.70;2.33;;;19.70;53.00;;;;;;4987767;28;20552;-46
2022/06/15 06:06:19;;;;;;;3.40;2.20;;;19.90;51.20;;;;;;4988527;28;20564;-45
2022/06/15 06:08:45;;;;;;;4.37;1.90;;;19.90;51.00;;;;;;4987598;28;20592;-46
2022/06/15 06:11:13;;;;;;;3.03;2.57;;;20.00;50.90;;;;;;4970993;28;20471;-46
2022/06/15 06:13:40;;;;;;;2.43;2.20;;;20.10;51.10;;;;;;4971150;28;20450;-46
2022/06/15 06:16:07;;;;;;;2.63;2.03;;;20.20;50.50;;;;;;4971026;28;20470;-46
2022/06/15 06:18:34;;;;;;;3.43;2.40;;;20.30;50.60;;;;;;4989441;28;20445;-47
2022/06/15 06:21:03;;;;;;;3.77;2.30;;;20.40;50.50;;;;;;4991067;28;20954;-46
2022/06/15 06:23:30;;;;;;;3.60;2.00;;;20.50;50.50;;;;;;4965457;28;20965;-46
2022/06/15 06:25:57;;;;;;;4.87;2.17;;;20.50;50.20;;;;;;4986625;28;20465;-46
2022/06/15 06:28:28;;;;;;;5.80;2.13;;;20.60;50.60;;;;;;4990536;28;20485;-48
2022/06/15 06:30:59;;;;;;;4.03;2.17;;;20.70;50.00;;;;;;4982830;28;20528;-48
2022/06/15 06:33:27;;;;;;;3.30;1.97;;;20.80;50.20;;;;;;4972523;28;20462;-48
2022/06/15 06:35:55;;;;;;;2.80;2.50;;;20.80;49.90;;;;;;4971766;28;20932;-47
2022/06/15 06:38:24;;;;;;;4.33;2.90;;;20.90;50.30;;;;;;4971389;28;20541;-45
2022/06/15 06:40:55;;;;;;;3.67;2.00;;;20.90;49.90;;;;;;4990104;28;20544;-45
2022/06/15 06:43:23;;;;;;;2.90;2.60;;;21.00;49.90;;;;;;4971760;28;20469;-45
2022/06/15 06:45:50;;;;;;;4.60;2.27;;;21.10;49.60;;;;;;4989649;28;20914;-46
2022/06/15 06:48:17;;;;;;;10.53;2.67;;;21.20;49.50;;;;;;4993673;28;20992;-45
2022/06/15 06:50:47;;;;;;;3.30;2.57;;;21.30;49.60;;;;;;4992235;28;20453;-45
2022/06/15 06:53:14;;;;;;;2.27;2.10;;;21.40;49.40;;;;;;4994386;28;21069;-45
2022/06/15 06:55:41;;;;;;;5.33;2.40;;;21.50;49.60;;;;;;4992933;28;20457;-45
2022/06/15 06:58:08;;;;;;;2.60;2.30;;;21.60;49.30;;;;;;4989251;28;21022;-44
2022/06/15 07:00:36;;;;;;;6.10;2.13;;;21.70;49.30;;;;;;4972281;28;21031;-44
2022/06/15 07:03:05;;;;;;;3.67;2.00;;;21.80;48.80;;;;;;4987747;28;20547;-44
2022/06/15 07:05:34;;;;;;;6.10;2.33;;;21.90;48.70;;;;;;4987524;28;20480;-44
2022/06/15 07:08:01;;;;;;;5.97;2.57;;;22.00;49.00;;;;;;4971277;28;20920;-44
2022/06/15 07:10:28;;;;;;;7.03;2.17;;;22.20;48.80;;;;;;4985303;28;20465;-44
2022/06/15 07:12:55;;;;;;;6.67;2.83;;;22.30;48.50;;;;;;4982536;28;20858;-44
2022/06/15 07:15:22;;;;;;;7.10;2.90;;;22.40;48.10;;;;;;4984971;28;20493;-44
2022/06/15 07:17:49;;;;;;;4.43;2.40;;;22.50;48.00;;;;;;4988145;28;20465;-45
2022/06/15 07:20:16;;;;;;;5.43;2.10;;;22.60;47.90;;;;;;4971257;28;20709;-45
2022/06/15 07:22:43;;;;;;;5.60;2.63;;;22.70;48.20;;;;;;4988192;28;20526;-45
2022/06/15 07:25:10;;;;;;;4.87;2.77;;;22.90;48.10;;;;;;4987174;28;20471;-45
2022/06/15 07:27:38;;;;;;;2.83;2.63;;;23.00;47.80;;;;;;4985551;28;20469;-45
2022/06/15 07:30:11;;;;;;;4.80;3.00;;;23.20;47.50;;;;;;4964516;28;20891;-45
2022/06/15 07:32:40;;;;;;;7.03;2.70;;;23.30;47.40;;;;;;4973175;28;20545;-45
2022/06/15 07:35:14;;;;;;;4.10;2.40;;;23.40;46.70;;;;;;4970609;28;20470;-45
2022/06/15 07:37:41;;;;;;;4.30;2.20;;;23.50;46.60;;;;;;4987972;28;20452;-45
2022/06/15 07:40:28;;;;;;;7.13;2.73;;;23.50;46.90;;;;;;4972004;28;20457;-48
2022/06/15 07:42:55;;;;;;;3.30;2.77;;;23.60;46.60;;;;;;4988498;28;20559;-48
2022/06/15 07:45:24;;;;;;;3.93;2.60;;;23.60;46.80;;;;;;4986352;28;21616;-48
2022/06/15 07:50:41;;;;;;;4.00;2.43;;;23.50;48.00;;;;;;4986184;28;20460;-48
2022/06/15 07:53:11;;;;;;;5.57;2.97;;;23.60;48.00;;;;;;4985972;28;20817;-48
2022/06/15 07:55:42;;;;;;;6.00;3.03;;;23.60;47.20;;;;;;4986864;28;20504;-48
2022/06/15 07:58:09;;;;;;;7.20;2.60;;;23.60;47.30;;;;;;4985199;28;20471;-48
2022/06/15 08:00:39;;;;;;;5.73;2.70;;;23.60;47.40;;;;;;4986180;28;21013;-48
2022/06/15 08:03:07;;;;;;;7.43;3.60;;;23.50;47.10;;;;;;4987148;28;20472;-48
2022/06/15 08:05:39;;;;;;;3.77;2.00;;;23.50;47.20;;;;;;4985511;28;20559;-48
2022/06/15 08:08:12;;;;;;;4.10;2.60;;;23.60;47.40;;;;;;4986104;28;21033;-45
2022/06/15 08:10:39;;;;;;;6.67;3.23;;;23.80;47.60;;;;;;4967385;28;21061;-45
2022/06/15 08:13:07;;;;;;;6.73;3.13;;;24.10;47.00;;;;;;4979527;28;20532;-45
2022/06/15 08:15:34;;;;;;;4.87;3.50;;;24.40;46.60;;;;;;4972003;28;20455;-45
2022/06/15 08:18:08;;;;;;;3.50;2.20;;;24.60;46.30;;;;;;4985568;28;20500;-45
2022/06/15 08:20:42;;;;;;;3.33;2.47;;;24.90;45.50;;;;;;4985416;28;20457;-45
2022/06/15 08:23:14;;;;;;;3.53;2.70;;;25.20;45.50;;;;;;4987516;28;20457;-45
2022/06/15 08:25:44;;;;;;;4.50;3.07;;;25.50;45.40;;;;;;4984052;28;20830;-45
2022/06/15 08:28:13;;;;;;;2.93;2.73;;;25.70;44.70;;;;;;4986443;28;20576;-45
2022/06/15 08:30:42;;;;;;;7.30;3.00;;;25.90;44.40;;;;;;4983798;28;20492;-45
2022/06/15 08:33:10;;;;;;;9.77;3.20;;;26.20;43.80;;;;;;4985776;28;20456;-45
2022/06/15 08:35:38;;;;;;;6.23;2.77;;;26.40;43.60;;;;;;4990397;28;20458;-45
2022/06/15 08:38:06;;;;;;;4.10;2.87;;;26.60;42.30;;;;;;4989431;28;20547;-45
2022/06/15 08:41:02;;;;;;;3.60;2.37;;;26.70;42.20;;;;;;4991070;28;20468;-45
2022/06/15 08:43:51;;;;;;;4.50;3.20;;;26.90;42.50;;;;;;4987648;28;20213;-45
2022/06/15 08:46:39;;;;;;;3.80;2.97;;;27.10;42.70;;;;;;4960482;28;20444;-45
2022/06/15 08:49:15;;;;;;;5.57;2.53;;;27.30;42.50;;;;;;4988787;28;20630;-44
2022/06/15 08:51:49;;;;;;;6.33;2.80;;;27.50;42.10;;;;;;4989069;28;20225;-44
2022/06/15 08:54:43;;;;;;;6.73;2.97;;;27.60;41.70;;;;;;4976002;28;20620;-44
2022/06/15 08:57:17;;;;;;;7.70;3.10;;;27.70;41.00;;;;;;4990609;28;20484;-46
2022/06/15 08:59:52;;;;;;;3.80;2.27;;;27.90;40.40;;;;;;4989126;28;20229;-44
2022/06/15 09:02:41;;;;;;;3.57;3.10;;;28.00;40.30;;;;;;4969899;28;21102;-45
2022/06/15 09:05:08;;;;;;;4.57;2.90;;;28.20;40.30;;;;;;4988694;28;20213;-45
2022/06/15 09:07:52;;;;;;;3.97;2.70;;;28.30;39.70;;;;;;4990064;28;20260;-45
2022/06/15 09:10:38;;;;;;;5.50;2.77;;;28.50;39.50;;;;;;4989649;28;20293;-45
2022/06/15 09:13:38;;;;;;;5.00;3.33;;;28.60;39.30;;;;;;4974337;28;20206;-45
2022/06/15 09:16:29;;;;;;;4.13;2.87;;;28.80;38.70;;;;;;4990604;28;20693;-45
2022/06/15 09:19:01;;;;;;;5.10;2.47;;;29.00;38.80;;;;;;4989594;28;20829;-45
2022/06/15 09:21:47;;;;;;;5.80;2.93;;;29.20;38.60;;;;;;4989881;28;20297;-45
2022/06/15 09:24:32;;;;;;;6.03;2.65;;;29.40;38.50;;;;;;4988692;28;20613;-45
2022/06/15 09:27:08;;;;;;;6.57;2.92;;;29.60;38.40;;;;;;4970276;28;20586;-45
2022/06/15 09:29:41;;;;;;;3.13;2.53;;;29.70;37.70;;;;;;4987731;28;20316;-45
2022/06/15 09:32:14;;;;;;;3.72;2.95;;;29.90;37.10;;;;;;4989374;28;20524;-45
2022/06/15 09:35:03;;;;;;;4.38;2.90;;;29.90;36.90;;;;;;4985331;28;20296;-45
2022/06/15 09:37:34;;;;;;;4.45;2.38;;;30.10;37.10;;;;;;4989902;28;20237;-45
2022/06/15 09:40:04;;;;;;;8.52;3.33;;;30.20;36.90;;;;;;4986701;28;20292;-45
2022/06/15 09:42:41;;;;;;;4.10;2.70;;;30.30;37.50;;;;;;4988497;28;20268;-47
2022/06/15 09:45:29;;;;;;;5.07;3.10;;;30.50;36.90;;;;;;4987300;28;20626;-47
2022/06/15 09:48:07;;;;;;;5.00;2.92;;;30.70;36.50;;;;;;4989544;28;20209;-47
2022/06/15 09:50:45;;;;;;;6.07;2.88;;;30.80;36.00;;;;;;4988844;28;20305;-47
2022/06/15 09:53:21;;;;;;;9.07;3.35;;;31.00;35.50;;;;;;4988731;28;20209;-47
2022/06/15 09:55:58;;;;;;;4.93;2.67;;;31.10;35.30;;;;;;4985692;28;20216;-47
2022/06/15 09:58:55;;;;;;;3.75;3.00;;;31.40;34.60;;;;;;4983957;28;20208;-47
2022/06/15 10:01:30;;;;;;;2.88;2.58;;;31.50;34.40;;;;;;4986004;28;20225;-46
2022/06/15 10:03:59;;;;;;;6.00;3.13;;;31.60;34.10;;;;;;4975030;28;20340;-46
2022/06/15 10:06:43;;;;;;;8.25;3.33;;;31.70;33.80;;;;;;4975214;28;20301;-48
2022/06/15 10:09:15;;;;;;;3.50;2.75;;;31.70;33.80;;;;;;4988318;28;20320;-48
2022/06/15 10:11:54;;;;;;;3.17;2.58;;;32.00;33.80;;;;;;4984974;28;20575;-48
2022/06/15 10:14:31;;;;;;;4.07;3.00;;;32.20;33.70;;;;;;4967757;28;20201;-48
2022/06/15 10:17:05;;;;;;;5.00;3.45;;;32.30;33.30;;;;;;4986478;28;20686;-48
2022/06/15 10:19:34;;;;;;;4.07;2.92;;;32.40;33.30;;;;;;4989653;28;20365;-48
2022/06/15 10:22:18;;;;;;;4.90;3.05;;;32.50;33.00;;;;;;4971881;28;20209;-47
2022/06/15 10:24:49;;;;;;;4.40;3.55;;;32.60;32.60;;;;;;4969230;28;20213;-47
2022/06/15 10:27:16;;;;;;;4.18;3.10;;;32.80;33.10;;;;;;4985585;28;20231;-47
2022/06/15 10:29:54;;;;;;;7.38;2.97;;;32.90;33.00;;;;;;4986897;28;20232;-47
2022/06/15 10:32:22;;;;;;;5.70;2.85;;;33.00;32.80;;;;;;4980610;28;20286;-48
2022/06/15 10:34:55;;;;;;;4.28;2.80;;;33.00;32.10;;;;;;4985127;28;20213;-47
2022/06/15 10:37:29;;;;;;;5.40;2.55;;;33.00;31.80;;;;;;4988351;28;20723;-47
2022/06/15 10:40:00;;;;;;;4.47;2.80;;;32.90;32.00;;;;;;4986408;28;20227;-47
2022/06/15 10:42:32;;;;;;;3.40;3.15;;;32.80;32.00;;;;;;4985208;28;20206;-47
2022/06/15 10:45:03;;;;;;;4.88;3.10;;;32.50;32.40;;;;;;4971190;28;20268;-47
2022/06/15 10:47:33;;;;;;;4.30;2.67;;;32.40;33.00;;;;;;4969692;28;20681;-47
2022/06/15 10:50:04;;;;;;;7.22;3.45;;;32.20;33.10;;;;;;4983363;28;20240;-47
2022/06/15 10:52:44;;;;;;;3.55;3.15;;;32.00;33.60;;;;;;4987254;28;20209;-48
2022/06/15 11:04:49;;;;;;;5.72;2.80;;;30.70;34.60;;;;;;4986923;28;20232;-47
2022/06/15 11:07:30;;;;;;;3.67;3.08;;;30.40;35.20;;;;;;4982058;28;20217;-47
2022/06/15 11:09:57;;;;;;;5.18;2.88;;;30.20;35.20;;;;;;4969128;28;20343;-47
2022/06/15 11:12:37;;;;;;;5.70;3.00;;;30.00;36.10;;;;;;4984313;28;20209;-47
2022/06/15 11:15:13;;;;;;;4.28;2.92;;;29.80;34.90;;;;;;4981553;28;20734;-47
2022/06/15 11:18:03;;;;;;;3.65;3.30;;;29.60;35.70;;;;;;5066302;28;21139;-48
2022/06/15 11:20:49;;;;;;;4.10;2.63;;;29.40;36.20;;;;;;5052347;28;20204;-48
2022/06/15 11:23:22;;;;;;;4.93;3.17;;;29.30;36.40;;;;;;5055042;28;20213;-47
2022/06/15 11:25:51;;;;;;;6.30;3.28;;;29.20;37.00;;;;;;5054246;28;20440;-48
2022/06/15 11:28:25;;;;;;;2.97;2.67;;;29.20;36.30;;;;;;5052893;28;20233;-48
2022/06/15 11:31:05;;;;;;;3.30;3.00;;;29.10;36.40;;;;;;5053922;28;20225;-47
2022/06/15 11:33:42;;;;;;;10.45;3.38;;;29.00;36.30;;;;;;5055896;28;20202;-47
2022/06/15 11:36:36;;;;;;;4.80;3.37;;;29.00;36.70;;;;;;5059337;28;20232;-47
2022/06/15 11:39:11;;;;;;;3.50;3.20;;;28.90;36.50;;;;;;5056509;28;20211;-47
2022/06/15 11:41:51;;;;;;;3.63;2.85;;;28.80;36.70;;;;;;5074784;28;20227;-47
2022/06/15 11:44:23;;;;;;;4.60;2.77;;;28.80;37.50;;;;;;5053781;28;20622;-48
2022/06/15 11:47:13;;;;;;;3.85;2.80;;;28.80;36.80;;;;;;5049957;28;20227;-47
2022/06/15 11:50:00;;;;;;;3.20;2.90;;;28.80;37.10;;;;;;5047469;28;20341;-48
2022/06/15 11:52:30;;;;;;;4.90;3.13;;;28.90;37.50;;;;;;5044512;28;20230;-48
2022/06/15 11:55:03;;;;;;;3.10;2.80;;;28.80;37.60;;;;;;5071769;28;20558;-48
2022/06/15 11:57:48;;;;;;;4.77;3.77;;;28.90;37.10;;;;;;5054235;28;20689;-48
2022/06/15 12:00:28;;;;;;;5.53;3.30;;;28.90;36.70;;;;;;5051689;28;20227;-48
2022/06/15 12:03:17;;;;;;;4.27;2.87;;;28.90;37.10;;;;;;5051528;28;20217;-48
2022/06/15 12:05:52;;;;;;;3.30;3.00;;;28.90;37.20;;;;;;5053668;28;20203;-48
2022/06/15 12:08:52;;;;;;;2.90;2.70;;;28.80;36.60;;;;;;5051075;28;20306;-48
2022/06/15 12:14:51;;;;;;;5.45;3.30;;;28.90;36.20;;;;;;5056877;28;20196;-48
2022/06/15 12:17:33;;;;;;;3.20;2.90;;;28.90;36.00;;;;;;5060118;28;20250;-48
2022/06/15 12:20:26;;;;;;;4.00;2.87;;;29.00;36.20;;;;;;5058767;28;20286;-47
2022/06/15 12:23:07;;;;;;;4.30;2.92;;;28.90;36.50;;;;;;5054083;28;20646;-48
2022/06/15 12:26:16;;;;;;;3.93;2.60;;;28.90;36.30;;;;;;5055365;28;20207;-48
2022/06/15 12:28:46;;;;;;;3.30;2.77;;;28.80;36.20;;;;;;5043282;28;20219;-48
2022/06/15 12:31:22;;;;;;;3.87;2.73;;;28.80;36.10;;;;;;5042101;28;20304;-48
2022/06/15 12:33:57;;;;;;;3.33;2.70;;;28.80;36.00;;;;;;5039979;28;20226;-48
2022/06/15 12:36:37;;;;;;;3.70;2.90;;;28.80;36.10;;;;;;5062082;28;20818;-48
2022/06/15 12:39:10;;;;;;;3.55;2.83;;;28.80;36.40;;;;;;5038539;28;20579;-48
2022/06/15 12:45:07;;;;;;;3.30;2.87;;;28.90;36.30;;;;;;5041561;28;20208;-48
2022/06/15 12:47:37;;;;;;;4.97;3.22;;;29.00;36.20;;;;;;5040321;28;20654;-48
2022/06/15 12:50:06;;;;;;;3.53;2.80;;;29.10;36.50;;;;;;5041321;28;20214;-48
2022/06/15 12:52:46;;;;;;;3.42;2.90;;;29.20;36.20;;;;;;5043160;28;20224;-48
2022/06/15 12:55:33;;;;;;;2.95;2.53;;;29.20;35.70;;;;;;5034747;28;20210;-48
2022/06/15 12:58:30;;;;;;;5.13;3.17;;;29.30;36.30;;;;;;5054456;28;20292;-48
2022/06/15 13:01:13;;;;;;;3.08;2.75;;;29.30;36.20;;;;;;5038680;28;20226;-48
2022/06/15 13:03:55;;;;;;;3.07;2.87;;;29.30;36.00;;;;;;5040589;28;20212;-48
2022/06/15 13:06:27;;;;;;;6.93;3.47;;;29.30;35.50;;;;;;5041467;28;20230;-48
2022/06/15 13:09:19;;;;;;;3.50;3.13;;;29.30;35.90;;;;;;5035894;28;20266;-48
2022/06/15 13:12:10;;;;;;;3.33;2.78;;;29.30;35.90;;;;;;5040313;28;20261;-48
2022/06/15 13:14:42;;;;;;;3.70;2.80;;;29.40;36.00;;;;;;5044832;28;20588;-47
2022/06/15 13:17:17;;;;;;;2.92;2.50;;;29.50;35.80;;;;;;5058601;28;20227;-48
2022/06/15 13:19:48;;;;;;;4.90;3.03;;;29.60;35.50;;;;;;5058894;28;20249;-48
2022/06/15 13:22:23;;;;;;;4.45;3.20;;;29.70;35.40;;;;;;5038172;28;20212;-48
2022/06/15 13:24:55;;;;;;;4.43;2.85;;;29.70;35.70;;;;;;5037918;28;20262;-48
2022/06/15 13:27:55;;;;;;;4.25;2.80;;;29.80;35.50;;;;;;5039205;28;20723;-48
2022/06/15 13:30:24;;;;;;;4.00;3.60;;;29.80;35.50;;;;;;5032500;28;20243;-48
2022/06/15 13:33:09;;;;;;;3.53;3.05;;;29.80;35.40;;;;;;5043320;28;20257;-48
2022/06/15 13:35:42;;;;;;;4.18;3.25;;;29.80;35.70;;;;;;5040359;28;20750;-48
2022/06/15 13:38:26;;;;;;;5.57;3.05;;;29.80;35.10;;;;;;5037472;28;20231;-48
2022/06/15 13:40:53;;;;;;;4.28;2.88;;;29.90;35.70;;;;;;5037489;28;20674;-49
2022/06/15 13:43:22;;;;;;;3.03;2.70;;;29.90;35.40;;;;;;5042125;28;20212;-48